sensor_id;sensor_type;location;lat;lon;timestamp;pressure;altitude;pressure_sealevel;temperature;humidity
7022;BME280;3552;42.664;23.406;2022-08-30T00:02:28;49627.59;;;-141.28;100.00
7022;BME280;3552;42.664;23.406;2022-08-30T00:04:56;49576.59;;;-141.28;100.00
7022;BME280;3552;42.664;23.406;2022-08-30T00:07:27;49502.03;;;-141.28;100.00
7022;BME280;3552;42.664;23.406;2022-08-30T00:09:55;49458.84;;;-141.28;100.00
7022;BME280;3552;42.664;23.406;2022-08-30T00:12:23;49399.97;;;-141.28;100.00
7022;BME280;3552;42.664;23.406;2022-08-30T00:14:52;49368.59;;;-141.28;100.00
7022;BME280;3552;42.664;23.406;2022-08-30T00:17:21;49348.97;;;-141.28;100.00
7022;BME280;3552;42.664;23.406;2022-08-30T00:19:50;49343.06;;;-141.28;100.00
7022;BME280;3552;42.664;23.406;2022-08-30T00:22:17;49321.50;;;-141.28;100.00
7022;BME280;3552;42.664;23.406;2022-08-30T00:24:45;49278.31;;;-141.28;100.00
7022;BME280;3552;42.664;23.406;2022-08-30T00:27:13;49266.56;;;-141.28;100.00
7022;BME280;3552;42.664;23.406;2022-08-30T00:29:41;49250.84;;;-141.28;100.00
7022;BME280;3552;42.664;23.406;2022-08-30T00:32:08;49221.41;;;-141.28;100.00
7022;BME280;3552;42.664;23.406;2022-08-30T00:34:37;49209.66;;;-141.28;100.00
7022;BME280;3552;42.664;23.406;2022-08-30T00:37:05;49184.13;;;-141.28;100.00
7022;BME280;3552;42.664;23.406;2022-08-30T00:39:32;49160.59;;;-141.28;100.00
7022;BME280;3552;42.664;23.406;2022-08-30T00:41:59;49144.91;;;-141.28;100.00
7022;BME280;3552;42.664;23.406;2022-08-30T00:44:26;49129.19;;;-141.28;100.00
7022;BME280;3552;42.664;23.406;2022-08-30T00:46:54;49133.13;;;-141.28;100.00
7022;BME280;3552;42.664;23.406;2022-08-30T00:49:22;49121.34;;;-141.28;100.00
7022;BME280;3552;42.664;23.406;2022-08-30T00:51:50;49129.19;;;-141.28;100.00
7022;BME280;3552;42.664;23.406;2022-08-30T00:54:20;49117.44;;;-141.28;100.00
7022;BME280;3552;42.664;23.406;2022-08-30T00:56:48;49135.09;;;-141.28;100.00
7022;BME280;3552;42.664;23.406;2022-08-30T00:59:16;49121.34;;;-141.28;100.00
7022;BME280;3552;42.664;23.406;2022-08-30T01:01:46;49135.09;;;-141.28;100.00
7022;BME280;3552;42.664;23.406;2022-08-30T01:04:13;49133.13;;;-141.28;100.00
7022;BME280;3552;42.664;23.406;2022-08-30T01:06:41;49137.06;;;-141.28;100.00
7022;BME280;3552;42.664;23.406;2022-08-30T01:09:08;49148.81;;;-141.28;100.00
7022;BME280;3552;42.664;23.406;2022-08-30T01:11:38;49152.75;;;-141.28;100.00
7022;BME280;3552;42.664;23.406;2022-08-30T01:14:07;49199.84;;;-141.28;100.00
7022;BME280;3552;42.664;23.406;2022-08-30T01:16:37;49227.31;;;-141.28;100.00
7022;BME280;3552;42.664;23.406;2022-08-30T01:19:12;49250.84;;;-141.28;100.00
7022;BME280;3552;42.664;23.406;2022-08-30T01:21:47;49282.25;;;-141.28;100.00
7022;BME280;3552;42.664;23.406;2022-08-30T01:24:18;49284.22;;;-141.28;100.00
7022;BME280;3552;42.664;23.406;2022-08-30T01:26:46;49294.03;;;-141.28;100.00
7022;BME280;3552;42.664;23.406;2022-08-30T01:29:17;49301.88;;;-141.28;100.00
7022;BME280;3552;42.664;23.406;2022-08-30T01:31:46;49313.66;;;-141.28;100.00
7022;BME280;3552;42.664;23.406;2022-08-30T01:34:15;49323.44;;;-141.28;100.00
7022;BME280;3552;42.664;23.406;2022-08-30T01:36:44;49358.78;;;-141.28;100.00
7022;BME280;3552;42.664;23.406;2022-08-30T01:39:14;49460.81;;;-141.28;100.00
7022;BME280;3552;42.664;23.406;2022-08-30T01:41:43;49666.84;;;-141.28;100.00
7022;BME280;3552;42.664;23.406;2022-08-30T01:44:11;49766.94;;;-141.28;100.00
7022;BME280;3552;42.664;23.406;2022-08-30T01:46:41;49796.38;;;-141.28;100.00
7022;BME280;3552;42.664;23.406;2022-08-30T01:49:12;49827.78;;;-141.28;100.00
7022;BME280;3552;42.664;23.406;2022-08-30T01:51:40;49831.69;;;-141.28;100.00
7022;BME280;3552;42.664;23.406;2022-08-30T01:54:08;49825.81;;;-141.28;100.00
7022;BME280;3552;42.664;23.406;2022-08-30T01:56:37;49802.25;;;-141.28;100.00
7022;BME280;3552;42.664;23.406;2022-08-30T01:59:06;49847.41;;;-141.28;100.00
7022;BME280;3552;42.664;23.406;2022-08-30T02:01:36;49847.41;;;-141.28;100.00
7022;BME280;3552;42.664;23.406;2022-08-30T02:04:05;49867.03;;;-141.28;100.00
7022;BME280;3552;42.664;23.406;2022-08-30T02:06:33;49855.25;;;-141.28;100.00
7022;BME280;3552;42.664;23.406;2022-08-30T02:09:00;49847.41;;;-141.28;100.00
7022;BME280;3552;42.664;23.406;2022-08-30T02:11:27;49764.97;;;-141.28;100.00
7022;BME280;3552;42.664;23.406;2022-08-30T02:13:54;49857.22;;;-141.28;100.00
7022;BME280;3552;42.664;23.406;2022-08-30T02:16:23;49851.31;;;-141.28;100.00
7022;BME280;3552;42.664;23.406;2022-08-30T02:18:51;49841.50;;;-141.28;100.00
7022;BME280;3552;42.664;23.406;2022-08-30T02:21:19;49839.56;;;-141.28;100.00
7022;BME280;3552;42.664;23.406;2022-08-30T02:23:46;49835.63;;;-141.28;100.00
7022;BME280;3552;42.664;23.406;2022-08-30T02:26:13;49814.03;;;-141.28;100.00
7022;BME280;3552;42.664;23.406;2022-08-30T02:28:42;49804.22;;;-141.28;100.00
7022;BME280;3552;42.664;23.406;2022-08-30T02:31:10;49776.75;;;-141.28;100.00
7022;BME280;3552;42.664;23.406;2022-08-30T02:33:41;49851.31;;;-141.28;100.00
7022;BME280;3552;42.664;23.406;2022-08-30T02:36:08;49827.78;;;-141.28;100.00
7022;BME280;3552;42.664;23.406;2022-08-30T02:38:35;49847.41;;;-141.28;100.00
7022;BME280;3552;42.664;23.406;2022-08-30T02:41:03;49870.94;;;-141.28;100.00
7022;BME280;3552;42.664;23.406;2022-08-30T02:43:30;49898.44;;;-141.28;100.00
7022;BME280;3552;42.664;23.406;2022-08-30T02:45:57;49910.19;;;-141.28;100.00
7022;BME280;3552;42.664;23.406;2022-08-30T02:48:24;49933.75;;;-141.28;100.00
7022;BME280;3552;42.664;23.406;2022-08-30T02:50:53;49939.63;;;-141.28;100.00
7022;BME280;3552;42.664;23.406;2022-08-30T02:53:20;49953.38;;;-141.28;100.00
7022;BME280;3552;42.664;23.406;2022-08-30T02:55:48;49945.53;;;-141.28;100.00
7022;BME280;3552;42.664;23.406;2022-08-30T02:58:16;49949.44;;;-141.28;100.00
7022;BME280;3552;42.664;23.406;2022-08-30T03:00:43;49949.44;;;-141.28;100.00
7022;BME280;3552;42.664;23.406;2022-08-30T03:03:11;49906.28;;;-141.28;100.00
7022;BME280;3552;42.664;23.406;2022-08-30T03:05:38;49969.06;;;-141.28;100.00
7022;BME280;3552;42.664;23.406;2022-08-30T03:08:16;50027.97;;;-141.28;100.00
7022;BME280;3552;42.664;23.406;2022-08-30T03:10:43;49984.78;;;-141.28;100.00
7022;BME280;3552;42.664;23.406;2022-08-30T03:13:10;49973.00;;;-141.28;100.00
7022;BME280;3552;42.664;23.406;2022-08-30T03:15:38;49990.66;;;-141.28;100.00
7022;BME280;3552;42.664;23.406;2022-08-30T03:18:07;49978.88;;;-141.28;100.00
7022;BME280;3552;42.664;23.406;2022-08-30T03:20:34;50004.41;;;-141.28;100.00
7022;BME280;3552;42.664;23.406;2022-08-30T03:23:03;50020.09;;;-141.28;100.00
7022;BME280;3552;42.664;23.406;2022-08-30T03:25:32;50008.34;;;-141.28;100.00
7022;BME280;3552;42.664;23.406;2022-08-30T03:27:59;50000.47;;;-141.28;100.00
7022;BME280;3552;42.664;23.406;2022-08-30T03:30:26;49984.78;;;-141.28;100.00
7022;BME280;3552;42.664;23.406;2022-08-30T03:32:53;49984.78;;;-141.28;100.00
7022;BME280;3552;42.664;23.406;2022-08-30T03:35:21;49961.22;;;-141.28;100.00
7022;BME280;3552;42.664;23.406;2022-08-30T03:37:50;49957.31;;;-141.28;100.00
7022;BME280;3552;42.664;23.406;2022-08-30T03:40:19;49929.81;;;-141.28;100.00
7022;BME280;3552;42.664;23.406;2022-08-30T03:42:48;49918.06;;;-141.28;100.00
7022;BME280;3552;42.664;23.406;2022-08-30T03:45:16;49865.06;;;-141.28;100.00
7022;BME280;3552;42.664;23.406;2022-08-30T03:47:44;49816.00;;;-141.28;100.00
7022;BME280;3552;42.664;23.406;2022-08-30T03:50:14;49823.84;;;-141.28;100.00
7022;BME280;3552;42.664;23.406;2022-08-30T03:52:41;49784.59;;;-141.28;100.00
7022;BME280;3552;42.664;23.406;2022-08-30T03:55:10;49768.91;;;-141.28;100.00
7022;BME280;3552;42.664;23.406;2022-08-30T03:57:38;49763.00;;;-141.28;100.00
7022;BME280;3552;42.664;23.406;2022-08-30T04:00:10;49776.75;;;-141.28;100.00
7022;BME280;3552;42.664;23.406;2022-08-30T04:02:38;49713.94;;;-141.28;100.00
7022;BME280;3552;42.664;23.406;2022-08-30T04:05:07;49766.94;;;-141.28;100.00
7022;BME280;3552;42.664;23.406;2022-08-30T04:07:36;49804.22;;;-141.28;100.00
7022;BME280;3552;42.664;23.406;2022-08-30T04:10:03;49831.69;;;-141.28;100.00
7022;BME280;3552;42.664;23.406;2022-08-30T04:12:31;49823.84;;;-141.28;100.00
7022;BME280;3552;42.664;23.406;2022-08-30T04:14:58;49882.72;;;-141.28;100.00
7022;BME280;3552;42.664;23.406;2022-08-30T04:17:27;49902.34;;;-141.28;100.00
7022;BME280;3552;42.664;23.406;2022-08-30T04:19:55;49914.13;;;-141.28;100.00
7022;BME280;3552;42.664;23.406;2022-08-30T04:22:22;49941.59;;;-141.28;100.00
7022;BME280;3552;42.664;23.406;2022-08-30T04:24:49;49949.44;;;-141.28;100.00
7022;BME280;3552;42.664;23.406;2022-08-30T04:27:17;49990.66;;;-141.28;100.00
7022;BME280;3552;42.664;23.406;2022-08-30T04:29:45;50014.22;;;-141.28;100.00
7022;BME280;3552;42.664;23.406;2022-08-30T04:32:14;50031.88;;;-141.28;100.00
7022;BME280;3552;42.664;23.406;2022-08-30T04:34:43;50086.84;;;-141.28;100.00
7022;BME280;3552;42.664;23.406;2022-08-30T04:37:13;50077.03;;;-141.28;100.00
7022;BME280;3552;42.664;23.406;2022-08-30T04:39:41;50067.22;;;-141.28;100.00
7022;BME280;3552;42.664;23.406;2022-08-30T04:42:10;50092.72;;;-141.28;100.00
7022;BME280;3552;42.664;23.406;2022-08-30T04:44:37;50110.38;;;-141.28;100.00
7022;BME280;3552;42.664;23.406;2022-08-30T04:47:05;50102.53;;;-141.28;100.00
7022;BME280;3552;42.664;23.406;2022-08-30T04:49:34;50100.56;;;-141.28;100.00
7022;BME280;3552;42.664;23.406;2022-08-30T04:52:03;50126.09;;;-141.28;100.00
7022;BME280;3552;42.664;23.406;2022-08-30T04:54:30;50135.91;;;-141.28;100.00
7022;BME280;3552;42.664;23.406;2022-08-30T04:56:58;50161.41;;;-141.28;100.00
7022;BME280;3552;42.664;23.406;2022-08-30T04:59:26;50169.28;;;-141.28;100.00
7022;BME280;3552;42.664;23.406;2022-08-30T05:01:55;50157.50;;;-141.28;100.00
7022;BME280;3552;42.664;23.406;2022-08-30T05:04:24;50161.41;;;-141.28;100.00
7022;BME280;3552;42.664;23.406;2022-08-30T05:06:51;50147.69;;;-141.28;100.00
7022;BME280;3552;42.664;23.406;2022-08-30T05:09:20;50130.00;;;-141.28;100.00
7022;BME280;3552;42.664;23.406;2022-08-30T05:11:47;50149.63;;;-141.28;100.00
7022;BME280;3552;42.664;23.406;2022-08-30T05:14:17;50186.94;;;-141.28;100.00
7022;BME280;3552;42.664;23.406;2022-08-30T05:16:44;50192.81;;;-141.28;100.00
7022;BME280;3552;42.664;23.406;2022-08-30T05:19:13;50212.44;;;-141.28;100.00
7022;BME280;3552;42.664;23.406;2022-08-30T05:21:40;50228.16;;;-141.28;100.00
7022;BME280;3552;42.664;23.406;2022-08-30T05:24:09;50259.56;;;-141.28;100.00
7022;BME280;3552;42.664;23.406;2022-08-30T05:26:39;50277.22;;;-141.28;100.00
7022;BME280;3552;42.664;23.406;2022-08-30T05:29:06;50275.25;;;-141.28;100.00
7022;BME280;3552;42.664;23.406;2022-08-30T05:31:35;50283.09;;;-141.28;100.00
7022;BME280;3552;42.664;23.406;2022-08-30T05:34:03;50279.19;;;-141.28;100.00
7022;BME280;3552;42.664;23.406;2022-08-30T05:36:33;50287.03;;;-141.28;100.00
7022;BME280;3552;42.664;23.406;2022-08-30T05:39:03;50314.50;;;-141.28;100.00
7022;BME280;3552;42.664;23.406;2022-08-30T05:41:30;50289.00;;;-141.28;100.00
7022;BME280;3552;42.664;23.406;2022-08-30T05:44:00;50326.28;;;-141.28;100.00
7022;BME280;3552;42.664;23.406;2022-08-30T05:46:28;50328.25;;;-141.28;100.00
7022;BME280;3552;42.664;23.406;2022-08-30T05:48:58;50318.44;;;-141.28;100.00
7022;BME280;3552;42.664;23.406;2022-08-30T05:51:28;50361.63;;;-141.28;100.00
7022;BME280;3552;42.664;23.406;2022-08-30T05:53:57;50365.53;;;-141.28;100.00
7022;BME280;3552;42.664;23.406;2022-08-30T05:56:26;50381.25;;;-141.28;100.00
7022;BME280;3552;42.664;23.406;2022-08-30T05:58:54;50391.06;;;-141.28;100.00
7022;BME280;3552;42.664;23.406;2022-08-30T06:01:24;50385.16;;;-141.28;100.00
7022;BME280;3552;42.664;23.406;2022-08-30T06:03:53;50381.25;;;-141.28;100.00
7022;BME280;3552;42.664;23.406;2022-08-30T06:06:21;50381.25;;;-141.28;100.00
7022;BME280;3552;42.664;23.406;2022-08-30T06:08:48;50365.53;;;-141.28;100.00
7022;BME280;3552;42.664;23.406;2022-08-30T06:11:17;50400.88;;;-141.28;100.00
7022;BME280;3552;42.664;23.406;2022-08-30T06:13:47;50396.94;;;-141.28;100.00
7022;BME280;3552;42.664;23.406;2022-08-30T06:16:18;50424.44;;;-141.28;100.00
7022;BME280;3552;42.664;23.406;2022-08-30T06:18:50;50467.59;;;-141.28;100.00
7022;BME280;3552;42.664;23.406;2022-08-30T06:21:20;50459.75;;;-141.28;100.00
7022;BME280;3552;42.664;23.406;2022-08-30T06:23:50;50463.69;;;-141.28;100.00
7022;BME280;3552;42.664;23.406;2022-08-30T06:26:17;50485.28;;;-141.28;100.00
7022;BME280;3552;42.664;23.406;2022-08-30T06:28:49;50506.88;;;-141.28;100.00
7022;BME280;3552;42.664;23.406;2022-08-30T06:31:18;50491.16;;;-141.28;100.00
7022;BME280;3552;42.664;23.406;2022-08-30T06:33:48;50416.56;;;-141.28;100.00
7022;BME280;3552;42.664;23.406;2022-08-30T06:36:18;50275.25;;;-141.28;100.00
7022;BME280;3552;42.664;23.406;2022-08-30T06:38:45;50137.88;;;-141.28;100.00
7022;BME280;3552;42.664;23.406;2022-08-30T06:41:15;50061.31;;;-141.28;100.00
7022;BME280;3552;42.664;23.406;2022-08-30T06:43:43;49945.53;;;-141.28;100.00
7022;BME280;3552;42.664;23.406;2022-08-30T06:46:16;49878.81;;;-141.28;100.00
7022;BME280;3552;42.664;23.406;2022-08-30T06:48:43;49827.78;;;-141.28;100.00
7022;BME280;3552;42.664;23.406;2022-08-30T06:51:14;49812.06;;;-141.28;100.00
7022;BME280;3552;42.664;23.406;2022-08-30T06:53:44;49788.53;;;-141.28;100.00
7022;BME280;3552;42.664;23.406;2022-08-30T06:56:13;49745.34;;;-141.28;100.00
7022;BME280;3552;42.664;23.406;2022-08-30T06:58:41;49749.28;;;-141.28;100.00
7022;BME280;3552;42.664;23.406;2022-08-30T07:01:11;49770.88;;;-141.28;100.00
7022;BME280;3552;42.664;23.406;2022-08-30T07:03:39;49753.19;;;-141.28;100.00
7022;BME280;3552;42.664;23.406;2022-08-30T07:06:06;49784.59;;;-141.28;100.00
7022;BME280;3552;42.664;23.406;2022-08-30T07:08:37;49772.81;;;-141.28;100.00
7022;BME280;3552;42.664;23.406;2022-08-30T07:11:07;49766.94;;;-141.28;100.00
7022;BME280;3552;42.664;23.406;2022-08-30T07:13:35;49784.59;;;-141.28;100.00
7022;BME280;3552;42.664;23.406;2022-08-30T07:16:08;49810.13;;;-141.28;100.00
7022;BME280;3552;42.664;23.406;2022-08-30T07:18:35;49761.06;;;-141.28;100.00
7022;BME280;3552;42.664;23.406;2022-08-30T07:21:21;49810.13;;;-141.28;100.00
7022;BME280;3552;42.664;23.406;2022-08-30T07:23:52;49772.81;;;-141.28;100.00
7022;BME280;3552;42.664;23.406;2022-08-30T07:26:23;49772.81;;;-141.28;100.00
7022;BME280;3552;42.664;23.406;2022-08-30T07:28:52;49764.97;;;-141.28;100.00
7022;BME280;3552;42.664;23.406;2022-08-30T07:31:20;49812.06;;;-141.28;100.00
7022;BME280;3552;42.664;23.406;2022-08-30T07:33:47;49749.28;;;-141.28;100.00
7022;BME280;3552;42.664;23.406;2022-08-30T07:36:17;49745.34;;;-141.28;100.00
7022;BME280;3552;42.664;23.406;2022-08-30T07:38:45;49719.84;;;-141.28;100.00
7022;BME280;3552;42.664;23.406;2022-08-30T07:41:19;49763.00;;;-141.28;100.00
7022;BME280;3552;42.664;23.406;2022-08-30T07:43:47;49739.47;;;-141.28;100.00
7022;BME280;3552;42.664;23.406;2022-08-30T07:46:15;49725.72;;;-141.28;100.00
7022;BME280;3552;42.664;23.406;2022-08-30T07:48:44;49729.66;;;-141.28;100.00
7022;BME280;3552;42.664;23.406;2022-08-30T07:51:13;49731.63;;;-141.28;100.00
7022;BME280;3552;42.664;23.406;2022-08-30T07:53:41;49737.50;;;-141.28;100.00
7022;BME280;3552;42.664;23.406;2022-08-30T07:56:10;49741.44;;;-141.28;100.00
7022;BME280;3552;42.664;23.406;2022-08-30T07:58:40;49741.44;;;-141.28;100.00
7022;BME280;3552;42.664;23.406;2022-08-30T08:01:10;49729.66;;;-141.28;100.00
7022;BME280;3552;42.664;23.406;2022-08-30T08:03:39;49749.28;;;-141.28;100.00
7022;BME280;3552;42.664;23.406;2022-08-30T08:06:09;49745.34;;;-141.28;100.00
7022;BME280;3552;42.664;23.406;2022-08-30T08:08:38;49719.84;;;-141.28;100.00
7022;BME280;3552;42.664;23.406;2022-08-30T08:11:06;49719.84;;;-141.28;100.00
7022;BME280;3552;42.664;23.406;2022-08-30T08:13:35;49729.66;;;-141.28;100.00
7022;BME280;3552;42.664;23.406;2022-08-30T08:16:04;49715.91;;;-141.28;100.00
7022;BME280;3552;42.664;23.406;2022-08-30T08:18:31;49753.19;;;-141.28;100.00
7022;BME280;3552;42.664;23.406;2022-08-30T08:21:00;49741.44;;;-141.28;100.00
7022;BME280;3552;42.664;23.406;2022-08-30T08:23:27;49729.66;;;-141.28;100.00
7022;BME280;3552;42.664;23.406;2022-08-30T08:25:55;49706.09;;;-141.28;100.00
7022;BME280;3552;42.664;23.406;2022-08-30T08:28:23;49729.66;;;-141.28;100.00
7022;BME280;3552;42.664;23.406;2022-08-30T08:30:50;49729.66;;;-141.28;100.00
7022;BME280;3552;42.664;23.406;2022-08-30T08:33:19;49731.63;;;-141.28;100.00
7022;BME280;3552;42.664;23.406;2022-08-30T08:35:47;49733.56;;;-141.28;100.00
7022;BME280;3552;42.664;23.406;2022-08-30T08:38:14;49719.84;;;-141.28;100.00
7022;BME280;3552;42.664;23.406;2022-08-30T08:40:49;49808.16;;;-141.28;100.00
7022;BME280;3552;42.664;23.406;2022-08-30T08:43:23;49876.84;;;-141.28;100.00
7022;BME280;3552;42.664;23.406;2022-08-30T08:45:58;49890.56;;;-141.28;100.00
7022;BME280;3552;42.664;23.406;2022-08-30T08:48:32;49937.69;;;-141.28;100.00
7022;BME280;3552;42.664;23.406;2022-08-30T08:51:03;49949.44;;;-141.28;100.00
7022;BME280;3552;42.664;23.406;2022-08-30T08:53:52;50041.69;;;-141.28;100.00
7022;BME280;3552;42.664;23.406;2022-08-30T08:56:21;49961.22;;;-141.28;100.00
7022;BME280;3552;42.664;23.406;2022-08-30T08:58:50;49961.22;;;-141.28;100.00
7022;BME280;3552;42.664;23.406;2022-08-30T09:01:20;49902.34;;;-141.28;100.00
7022;BME280;3552;42.664;23.406;2022-08-30T09:03:50;49865.06;;;-141.28;100.00
7022;BME280;3552;42.664;23.406;2022-08-30T09:06:25;49800.31;;;-141.28;100.00
7022;BME280;3552;42.664;23.406;2022-08-30T09:08:54;49784.59;;;-141.28;100.00
7022;BME280;3552;42.664;23.406;2022-08-30T09:11:25;49823.84;;;-141.28;100.00
7022;BME280;3552;42.664;23.406;2022-08-30T09:13:53;50014.22;;;-141.28;100.00
7022;BME280;3552;42.664;23.406;2022-08-30T09:16:53;50365.53;;;-141.28;100.00
7022;BME280;3552;42.664;23.406;2022-08-30T09:19:43;50714.94;;;-141.28;100.00
7022;BME280;3552;42.664;23.406;2022-08-30T09:22:19;50832.72;;;-141.28;100.00
7022;BME280;3552;42.664;23.406;2022-08-30T09:24:49;50836.66;;;-141.28;100.00
7022;BME280;3552;42.664;23.406;2022-08-30T09:27:23;50985.84;;;-141.28;100.00
7022;BME280;3552;42.664;23.406;2022-08-30T09:30:04;51080.06;;;-141.28;100.00
7022;BME280;3552;42.664;23.406;2022-08-30T09:32:36;51142.91;;;-141.28;100.00
7022;BME280;3552;42.664;23.406;2022-08-30T09:35:09;51211.63;;;-141.28;100.00
7022;BME280;3552;42.664;23.406;2022-08-30T09:37:43;51243.03;;;-141.28;100.00
7022;BME280;3552;42.664;23.406;2022-08-30T09:40:15;51260.69;;;-141.28;100.00
7022;BME280;3552;42.664;23.406;2022-08-30T09:42:59;51260.69;;;-141.28;100.00
7022;BME280;3552;42.664;23.406;2022-08-30T09:45:29;51203.75;;;-141.28;100.00
7022;BME280;3552;42.664;23.406;2022-08-30T09:47:57;51229.28;;;-141.28;100.00
7022;BME280;3552;42.664;23.406;2022-08-30T09:50:28;51354.94;;;-141.28;100.00
7022;BME280;3552;42.664;23.406;2022-08-30T09:53:05;51319.59;;;-141.28;100.00
7022;BME280;3552;42.664;23.406;2022-08-30T09:55:52;51323.53;;;-141.28;100.00
7022;BME280;3552;42.664;23.406;2022-08-30T09:58:32;51296.03;;;-141.28;100.00
7022;BME280;3552;42.664;23.406;2022-08-30T10:01:09;51376.53;;;-141.28;100.00
7022;BME280;3552;42.664;23.406;2022-08-30T10:03:41;51498.28;;;-141.28;100.00
7022;BME280;3552;42.664;23.406;2022-08-30T10:06:23;51392.25;;;-141.28;100.00
7022;BME280;3552;42.664;23.406;2022-08-30T10:09:02;51351.00;;;-141.28;100.00
7022;BME280;3552;42.664;23.406;2022-08-30T10:11:37;51264.63;;;-141.28;100.00
7022;BME280;3552;42.664;23.406;2022-08-30T10:14:28;51303.88;;;-141.28;100.00
7022;BME280;3552;42.664;23.406;2022-08-30T10:17:01;51315.66;;;-141.28;100.00
7022;BME280;3552;42.664;23.406;2022-08-30T10:19:39;51335.31;;;-141.28;100.00
7022;BME280;3552;42.664;23.406;2022-08-30T10:22:16;51313.72;;;-141.28;100.00
7022;BME280;3552;42.664;23.406;2022-08-30T10:24:50;51315.66;;;-141.28;100.00
7022;BME280;3552;42.664;23.406;2022-08-30T10:27:25;51239.09;;;-141.28;100.00
7022;BME280;3552;42.664;23.406;2022-08-30T10:29:55;51288.19;;;-141.28;100.00
7022;BME280;3552;42.664;23.406;2022-08-30T10:32:27;51256.78;;;-141.28;100.00
7022;BME280;3552;42.664;23.406;2022-08-30T10:35:01;51243.03;;;-141.28;100.00
7022;BME280;3552;42.664;23.406;2022-08-30T10:37:34;51276.41;;;-141.28;100.00
7022;BME280;3552;42.664;23.406;2022-08-30T10:40:10;51280.34;;;-141.28;100.00
7022;BME280;3552;42.664;23.406;2022-08-30T10:42:53;51225.34;;;-141.28;100.00
7022;BME280;3552;42.664;23.406;2022-08-30T10:45:22;51191.97;;;-141.28;100.00
7022;BME280;3552;42.664;23.406;2022-08-30T10:47:57;51178.25;;;-141.28;100.00
7022;BME280;3552;42.664;23.406;2022-08-30T10:50:29;51166.47;;;-141.28;100.00
7022;BME280;3552;42.664;23.406;2022-08-30T10:53:07;51225.34;;;-141.28;100.00
7022;BME280;3552;42.664;23.406;2022-08-30T10:55:41;51213.56;;;-141.28;100.00
7022;BME280;3552;42.664;23.406;2022-08-30T10:58:11;51239.09;;;-141.28;100.00
7022;BME280;3552;42.664;23.406;2022-08-30T11:00:53;51237.13;;;-141.28;100.00
7022;BME280;3552;42.664;23.406;2022-08-30T11:06:40;51209.66;;;-141.28;100.00
7022;BME280;3552;42.664;23.406;2022-08-30T11:09:37;51154.69;;;-141.28;100.00
7022;BME280;3552;42.664;23.406;2022-08-30T11:12:30;51260.69;;;-141.28;100.00
7022;BME280;3552;42.664;23.406;2022-08-30T11:15:11;51264.63;;;-141.28;100.00
7022;BME280;3552;42.664;23.406;2022-08-30T11:17:45;51347.09;;;-141.28;100.00
7022;BME280;3552;42.664;23.406;2022-08-30T11:20:28;51190.03;;;-141.28;100.00
7022;BME280;3552;42.664;23.406;2022-08-30T11:23:26;51162.53;;;-141.28;100.00
7022;BME280;3552;42.664;23.406;2022-08-30T11:25:59;51174.31;;;-141.28;100.00
7022;BME280;3552;42.664;23.406;2022-08-30T11:28:59;51011.38;;;-141.28;100.00
7022;BME280;3552;42.664;23.406;2022-08-30T11:31:40;50868.06;;;-141.28;100.00
7022;BME280;3552;42.664;23.406;2022-08-30T11:34:09;50691.38;;;-141.28;100.00
7022;BME280;3552;42.664;23.406;2022-08-30T11:37:04;50228.16;;;-141.28;100.00
7022;BME280;3552;42.664;23.406;2022-08-30T11:39:54;50181.03;;;-141.28;100.00
7022;BME280;3552;42.664;23.406;2022-08-30T11:42:41;50302.72;;;-141.28;100.00
7022;BME280;3552;42.664;23.406;2022-08-30T11:45:46;50137.88;;;-141.28;100.00
7022;BME280;3552;42.664;23.406;2022-08-30T11:48:39;50361.63;;;-141.28;100.00
7022;BME280;3552;42.664;23.406;2022-08-30T11:51:28;50447.97;;;-141.28;100.00
7022;BME280;3552;42.664;23.406;2022-08-30T11:54:04;50294.88;;;-141.28;100.00
7022;BME280;3552;42.664;23.406;2022-08-30T11:56:46;50208.53;;;-141.28;100.00
7022;BME280;3552;42.664;23.406;2022-08-30T11:59:24;50302.72;;;-141.28;100.00
7022;BME280;3552;42.664;23.406;2022-08-30T12:01:55;50071.13;;;-141.28;100.00
7022;BME280;3552;42.664;23.406;2022-08-30T12:04:30;50287.03;;;-141.28;100.00
7022;BME280;3552;42.664;23.406;2022-08-30T12:07:03;50296.84;;;-141.28;100.00
7022;BME280;3552;42.664;23.406;2022-08-30T12:12:52;50131.97;;;-141.28;100.00
7022;BME280;3552;42.664;23.406;2022-08-30T12:18:27;49912.16;;;-141.28;100.00
7022;BME280;3552;42.664;23.406;2022-08-30T12:20:58;49816.00;;;-141.28;100.00
7022;BME280;3552;42.664;23.406;2022-08-30T12:23:33;49837.59;;;-141.28;100.00
7022;BME280;3552;42.664;23.406;2022-08-30T12:26:12;49929.81;;;-141.28;100.00
7022;BME280;3552;42.664;23.406;2022-08-30T12:28:40;49817.97;;;-141.28;100.00
7022;BME280;3552;42.664;23.406;2022-08-30T12:31:10;49611.91;;;-141.28;100.00
7022;BME280;3552;42.664;23.406;2022-08-30T12:33:43;49939.63;;;-141.28;100.00
7022;BME280;3552;42.664;23.406;2022-08-30T12:36:15;49615.84;;;-141.28;100.00
7022;BME280;3552;42.664;23.406;2022-08-30T12:38:42;49737.50;;;-141.28;100.00
7022;BME280;3552;42.664;23.406;2022-08-30T12:41:18;49451.00;;;-141.28;100.00
7022;BME280;3552;42.664;23.406;2022-08-30T12:43:49;49525.56;;;-141.28;100.00
7022;BME280;3552;42.664;23.406;2022-08-30T12:46:19;49686.47;;;-141.28;100.00
7022;BME280;3552;42.664;23.406;2022-08-30T12:48:50;50208.53;;;-141.28;100.00
7022;BME280;3552;42.664;23.406;2022-08-30T12:51:36;50228.16;;;-141.28;100.00
7022;BME280;3552;42.664;23.406;2022-08-30T12:54:07;50314.50;;;-141.28;100.00
7022;BME280;3552;42.664;23.406;2022-08-30T12:57:01;50137.88;;;-141.28;100.00
7022;BME280;3552;42.664;23.406;2022-08-30T12:59:52;50094.69;;;-141.28;100.00
7022;BME280;3552;42.664;23.406;2022-08-30T13:02:23;50118.25;;;-141.28;100.00
7022;BME280;3552;42.664;23.406;2022-08-30T13:04:55;50220.28;;;-141.28;100.00
7022;BME280;3552;42.664;23.406;2022-08-30T13:07:25;50122.16;;;-141.28;100.00
7022;BME280;3552;42.664;23.406;2022-08-30T13:10:00;50130.00;;;-141.28;100.00
7022;BME280;3552;42.664;23.406;2022-08-30T13:12:30;50155.53;;;-141.28;100.00